createdAt,value
2023-01-17T00:01:34.154Z,5.61
2023-01-17T00:04:22.883Z,5.61
2023-01-17T00:07:11.190Z,5.63
2023-01-17T00:09:54.079Z,5.63
2023-01-17T00:12:26.575Z,5.65
2023-01-17T00:14:58.979Z,5.65
2023-01-17T00:17:31.782Z,5.62
2023-01-17T00:20:20.373Z,5.58
2023-01-17T00:23:08.678Z,5.54
2023-01-17T00:25:58.458Z,5.55
2023-01-17T00:28:28.950Z,5.59
2023-01-17T00:30:58.530Z,5.59
2023-01-17T00:33:28.394Z,5.58
2023-01-17T00:35:59.563Z,5.57
2023-01-17T00:38:30.784Z,5.59
2023-01-17T00:41:05.685Z,5.59
2023-01-17T00:43:54.583Z,5.62
2023-01-17T00:46:43.481Z,5.66
2023-01-17T00:49:32.254Z,5.67
2023-01-17T00:52:21.072Z,5.68
2023-01-17T00:55:09.355Z,5.65
2023-01-17T00:57:57.975Z,5.61
2023-01-17T01:00:46.621Z,5.61
2023-01-17T01:03:35.540Z,5.65
2023-01-17T01:06:26.696Z,5.69
2023-01-17T01:09:14.825Z,5.74
2023-01-17T01:12:03.232Z,5.78
2023-01-17T01:14:51.585Z,5.82
2023-01-17T01:17:39.708Z,5.85
2023-01-17T01:20:29.985Z,5.89
2023-01-17T01:23:21.953Z,5.92
2023-01-17T01:26:10.189Z,5.95
2023-01-17T01:28:58.678Z,5.96
2023-01-17T01:31:47.250Z,5.94
2023-01-17T01:34:18.060Z,5.90
2023-01-17T01:36:48.733Z,5.90
2023-01-17T01:39:19.429Z,5.95
2023-01-17T01:41:50.107Z,5.98
2023-01-17T01:44:44.521Z,6.06
2023-01-17T01:47:21.061Z,6.16
2023-01-17T01:49:52.476Z,6.22
2023-01-17T01:52:26.611Z,6.29
2023-01-17T01:55:01.221Z,6.35
2023-01-17T01:57:36.414Z,6.38
2023-01-17T02:00:17.533Z,6.33
2023-01-17T02:02:50.899Z,6.38
2023-01-17T02:05:24.629Z,6.45
2023-01-17T02:08:00.043Z,6.49
2023-01-17T02:10:32.228Z,6.49
2023-01-17T02:13:03.765Z,6.52
2023-01-17T02:15:42.247Z,6.53
2023-01-17T02:18:23.521Z,6.56
2023-01-17T02:21:16.149Z,6.61
2023-01-17T02:24:41.101Z,6.62
2023-01-17T02:27:18.333Z,6.59
2023-01-17T02:30:32.976Z,6.58
2023-01-17T02:33:15.694Z,6.57
2023-01-17T02:35:55.612Z,6.56
2023-01-17T02:38:39.269Z,6.56
2023-01-17T02:41:17.644Z,6.56
2023-01-17T02:43:50.855Z,6.57
2023-01-17T02:46:21.847Z,6.57
2023-01-17T02:48:53.392Z,6.55
2023-01-17T02:51:46.330Z,6.50
2023-01-17T02:54:33.049Z,6.47
2023-01-17T02:57:22.631Z,6.46
2023-01-17T03:00:01.408Z,6.47
2023-01-17T03:02:39.600Z,6.46
2023-01-17T03:05:15.386Z,6.47
2023-01-17T03:07:48.258Z,6.55
2023-01-17T03:10:19.166Z,6.53
2023-01-17T03:12:49.987Z,6.46
2023-01-17T03:15:20.609Z,6.42
2023-01-17T03:17:54.506Z,6.34
2023-01-17T03:20:25.502Z,6.28
2023-01-17T03:22:56.317Z,6.23
2023-01-17T03:25:27.418Z,6.22
2023-01-17T03:27:58.744Z,6.21
2023-01-17T03:30:29.904Z,6.20
2023-01-17T03:33:00.665Z,6.17
2023-01-17T03:35:31.473Z,6.13
2023-01-17T03:38:02.147Z,6.09
2023-01-17T03:40:33.251Z,6.07
2023-01-17T03:43:03.949Z,6.04
2023-01-17T03:45:34.673Z,6.03
2023-01-17T03:48:06.311Z,6.01
2023-01-17T03:50:37.250Z,5.98
2023-01-17T03:53:08.128Z,5.95
2023-01-17T03:55:38.753Z,5.93
2023-01-17T03:58:09.822Z,5.90
2023-01-17T04:00:40.839Z,5.89
2023-01-17T04:03:11.687Z,5.90
2023-01-17T04:05:42.447Z,5.88
2023-01-17T04:08:16.102Z,5.86
2023-01-17T04:10:47.144Z,5.83
2023-01-17T04:13:18.121Z,5.84
2023-01-17T04:15:52.169Z,5.82
2023-01-17T04:18:25.007Z,5.83
2023-01-17T04:20:55.699Z,5.81
2023-01-17T04:23:26.461Z,5.81
2023-01-17T04:25:57.207Z,5.81
2023-01-17T04:28:27.914Z,5.78
2023-01-17T04:31:01.769Z,5.79
2023-01-17T04:33:32.512Z,5.79
2023-01-17T04:36:03.235Z,5.78
2023-01-17T04:38:35.165Z,5.77
2023-01-17T04:41:06.012Z,5.76
2023-01-17T04:43:36.889Z,5.75
2023-01-17T04:46:10.117Z,5.74
2023-01-17T04:48:40.870Z,5.74
2023-01-17T04:51:11.603Z,5.72
2023-01-17T04:53:42.474Z,5.71
2023-01-17T04:56:13.228Z,5.70
2023-01-17T04:58:43.866Z,5.71
2023-01-17T05:01:14.857Z,5.74
2023-01-17T05:03:45.668Z,5.73
2023-01-17T05:06:16.485Z,5.69
2023-01-17T05:08:47.347Z,5.67
2023-01-17T05:11:19.252Z,5.66
2023-01-17T05:13:52.114Z,5.67
2023-01-17T05:16:22.851Z,5.66
2023-01-17T05:18:54.945Z,5.67
2023-01-17T05:21:25.938Z,5.67
2023-01-17T05:23:56.744Z,5.66
2023-01-17T05:26:27.531Z,5.64
2023-01-17T05:28:58.206Z,5.64
2023-01-17T05:31:28.997Z,5.63
2023-01-17T05:33:59.556Z,5.65
2023-01-17T05:36:30.307Z,5.65
2023-01-17T05:39:01.088Z,5.64
2023-01-17T05:41:31.819Z,5.64
2023-01-17T05:44:02.569Z,5.65
2023-01-17T05:46:33.428Z,5.63
2023-01-17T05:49:04.285Z,5.61
2023-01-17T05:51:37.802Z,5.59
2023-01-17T05:54:08.936Z,5.58
2023-01-17T05:56:39.637Z,5.57
2023-01-17T05:59:12.065Z,5.56
2023-01-17T06:01:44.810Z,5.56
2023-01-17T06:04:15.591Z,5.58
2023-01-17T06:06:46.446Z,5.58
2023-01-17T06:09:17.517Z,5.58
2023-01-17T06:11:48.330Z,5.58
2023-01-17T06:14:19.092Z,5.58
2023-01-17T06:16:49.904Z,5.57
2023-01-17T06:19:20.574Z,5.55
2023-01-17T06:21:51.329Z,5.55
2023-01-17T06:24:22.129Z,5.58
2023-01-17T06:26:53.257Z,5.57
2023-01-17T06:29:24.149Z,5.56
2023-01-17T06:31:54.900Z,5.54
2023-01-17T06:34:25.960Z,5.51
2023-01-17T06:36:56.818Z,5.52
2023-01-17T06:39:27.543Z,5.51
2023-01-17T06:41:58.420Z,5.52
2023-01-17T06:44:29.205Z,5.53
2023-01-17T06:46:59.950Z,5.52
2023-01-17T06:49:30.533Z,5.47
2023-01-17T06:52:01.331Z,5.40
2023-01-17T06:54:31.940Z,5.34
2023-01-17T06:57:02.656Z,5.28
2023-01-17T06:59:33.279Z,5.24
2023-01-17T07:02:04.041Z,5.19
2023-01-17T07:04:35.450Z,5.16
2023-01-17T07:07:06.123Z,5.11
2023-01-17T07:09:36.728Z,5.09
2023-01-17T07:12:08.861Z,5.08
2023-01-17T07:14:39.599Z,5.07
2023-01-17T07:17:10.447Z,5.05
2023-01-17T07:19:41.203Z,5.04
2023-01-17T07:22:13.350Z,5.02
2023-01-17T07:24:44.329Z,5.00
2023-01-17T07:27:15.087Z,4.98
2023-01-17T07:29:45.718Z,4.93
2023-01-17T07:32:16.443Z,4.95
2023-01-17T07:34:47.173Z,4.94
2023-01-17T07:37:19.979Z,4.91
2023-01-17T07:39:50.945Z,4.89
2023-01-17T07:42:23.822Z,4.88
2023-01-17T07:44:54.933Z,4.87
2023-01-17T07:47:25.726Z,4.87
2023-01-17T07:49:56.324Z,4.85
2023-01-17T07:52:26.986Z,4.83
2023-01-17T07:54:57.624Z,4.81
2023-01-17T07:57:28.391Z,4.80
2023-01-17T07:59:59.053Z,4.80
2023-01-17T08:02:29.750Z,4.79
2023-01-17T08:05:00.350Z,4.78
2023-01-17T08:07:31.061Z,4.78
2023-01-17T08:10:01.774Z,4.78
2023-01-17T08:12:32.626Z,4.77
2023-01-17T08:15:03.435Z,4.76
2023-01-17T08:17:34.444Z,4.76
2023-01-17T08:20:06.170Z,4.78
2023-01-17T08:22:36.840Z,4.83
2023-01-17T08:25:08.832Z,4.92
2023-01-17T08:27:39.872Z,4.93
2023-01-17T08:30:12.953Z,4.93
2023-01-17T08:32:43.737Z,4.96
2023-01-17T08:35:14.396Z,4.97
2023-01-17T08:37:45.104Z,4.96
2023-01-17T08:40:17.843Z,4.94
2023-01-17T08:42:57.186Z,4.92
2023-01-17T08:45:29.202Z,4.89
2023-01-17T08:48:01.275Z,4.84
2023-01-17T08:50:32.105Z,4.81
2023-01-17T08:53:02.812Z,4.79
2023-01-17T08:55:37.827Z,4.77
2023-01-17T08:58:08.636Z,4.76
2023-01-17T09:00:39.810Z,4.75
2023-01-17T09:03:14.330Z,4.74
2023-01-17T09:05:44.914Z,4.97
2023-01-17T09:08:15.657Z,5.35
2023-01-17T09:10:46.623Z,5.72
2023-01-17T09:13:17.406Z,6.05
2023-01-17T09:15:48.054Z,6.27
2023-01-17T09:18:18.677Z,6.55
2023-01-17T09:20:49.311Z,6.79
2023-01-17T09:23:20.033Z,6.81
2023-01-17T09:25:56.319Z,6.82
2023-01-17T09:28:28.059Z,7.05
2023-01-17T09:30:58.789Z,7.29
2023-01-17T09:33:29.732Z,7.49
2023-01-17T09:36:04.232Z,7.69
2023-01-17T09:38:35.115Z,7.86
2023-01-17T09:41:19.342Z,8.05
2023-01-17T09:43:53.377Z,8.13
2023-01-17T09:46:29.789Z,8.22
2023-01-17T09:49:08.459Z,8.29
2023-01-17T09:51:39.764Z,8.35
2023-01-17T09:54:21.495Z,8.39
2023-01-17T09:57:01.874Z,8.31
2023-01-17T09:59:45.656Z,8.17
2023-01-17T10:02:42.718Z,8.16
2023-01-17T10:05:34.377Z,7.96
2023-01-17T10:08:17.836Z,7.77
2023-01-17T10:11:03.092Z,7.62
2023-01-17T10:13:47.004Z,7.38
2023-01-17T10:16:32.824Z,7.15
2023-01-17T10:19:17.290Z,6.92
2023-01-17T10:22:04.264Z,6.76
2023-01-17T10:24:54.465Z,6.67
2023-01-17T10:27:30.331Z,6.51
2023-01-17T10:30:02.398Z,6.35
2023-01-17T10:32:36.383Z,6.27
2023-01-17T10:35:21.512Z,6.19
2023-01-17T10:37:56.752Z,6.14
2023-01-17T10:40:36.502Z,6.08
2023-01-17T10:43:14.508Z,6.05
2023-01-17T10:45:53.075Z,5.97
2023-01-17T10:48:35.796Z,5.89
2023-01-17T10:51:15.964Z,5.82
2023-01-17T10:54:05.074Z,5.78
2023-01-17T10:56:39.062Z,5.72
2023-01-17T10:59:19.966Z,5.65
2023-01-17T11:01:51.393Z,5.59
2023-01-17T11:04:27.259Z,5.56
2023-01-17T11:09:57.477Z,5.57
2023-01-17T11:12:31.797Z,5.58
2023-01-17T11:15:07.394Z,5.58
2023-01-17T11:17:39.936Z,5.60
2023-01-17T11:20:21.004Z,5.65
2023-01-17T11:23:06.370Z,5.69
2023-01-17T11:25:37.421Z,5.73
2023-01-17T11:28:22.148Z,5.74
2023-01-17T11:30:58.626Z,5.75
2023-01-17T11:33:45.085Z,5.80
2023-01-17T11:36:25.003Z,6.00
2023-01-17T11:39:02.878Z,6.24
2023-01-17T11:41:38.092Z,6.40
2023-01-17T11:44:25.882Z,6.58
2023-01-17T11:47:19.080Z,6.67
2023-01-17T11:49:50.828Z,6.80
2023-01-17T11:52:28.468Z,6.88
2023-01-17T11:55:00.125Z,7.01
2023-01-17T11:57:33.368Z,7.01
2023-01-17T12:00:20.579Z,6.92
2023-01-17T12:03:16.124Z,6.83
2023-01-17T12:05:57.965Z,6.76
2023-01-17T12:08:53.213Z,6.67
2023-01-17T12:11:29.961Z,6.65
2023-01-17T12:14:13.014Z,6.79
2023-01-17T12:16:55.617Z,6.88
2023-01-17T12:19:54.818Z,6.92
2023-01-17T12:22:37.154Z,7.02
2023-01-17T12:25:23.607Z,7.08
2023-01-17T12:28:08.782Z,7.17
2023-01-17T12:30:54.122Z,7.25
2023-01-17T12:33:33.831Z,7.33
2023-01-17T12:36:17.759Z,7.39
2023-01-17T12:38:50.036Z,7.40
2023-01-17T12:41:26.488Z,7.39
2023-01-17T12:44:00.793Z,7.36
2023-01-17T12:46:38.635Z,7.30
2023-01-17T12:49:24.115Z,7.22
2023-01-17T12:52:00.356Z,7.16
2023-01-17T12:54:38.004Z,7.14
2023-01-17T12:57:16.473Z,7.09
2023-01-17T12:59:53.445Z,7.03
2023-01-17T13:02:33.595Z,7.01
2023-01-17T13:05:08.700Z,6.98
2023-01-17T13:07:48.685Z,6.94
2023-01-17T13:10:26.429Z,6.95
2023-01-17T13:13:01.550Z,6.91
2023-01-17T13:15:38.995Z,6.89
2023-01-17T13:18:15.622Z,6.89
2023-01-17T13:21:08.686Z,6.92
2023-01-17T13:23:59.005Z,6.89
2023-01-17T13:26:41.506Z,6.82
2023-01-17T13:29:22.108Z,6.78
2023-01-17T13:31:59.261Z,6.74
2023-01-17T13:34:52.895Z,6.72
2023-01-17T13:37:42.558Z,6.70
2023-01-17T13:40:34.153Z,6.73
2023-01-17T13:43:06.289Z,6.66
2023-01-17T13:45:39.162Z,6.51
2023-01-17T13:48:26.843Z,6.42
2023-01-17T13:50:58.669Z,6.35
2023-01-17T13:54:00.928Z,6.31
2023-01-17T13:56:38.485Z,6.26
2023-01-17T13:59:30.637Z,6.20
2023-01-17T14:02:01.657Z,6.14
2023-01-17T14:05:06.104Z,6.13
2023-01-17T14:07:41.909Z,6.11
2023-01-17T14:10:33.852Z,6.09
2023-01-17T14:13:07.254Z,6.08
2023-01-17T14:15:50.932Z,6.05
2023-01-17T14:18:35.033Z,6.02
2023-01-17T14:21:14.734Z,5.98
2023-01-17T14:24:06.288Z,5.92
2023-01-17T14:26:43.172Z,5.86
2023-01-17T14:30:00.487Z,5.84
2023-01-17T14:32:34.482Z,5.83
2023-01-17T14:35:06.513Z,5.81
2023-01-17T14:37:50.679Z,5.79
2023-01-17T14:40:26.377Z,5.76
2023-01-17T14:43:03.744Z,5.71
2023-01-17T14:45:36.946Z,5.69
2023-01-17T14:48:20.115Z,5.68
2023-01-17T14:50:52.407Z,5.69
2023-01-17T14:53:26.021Z,5.69
2023-01-17T14:55:59.462Z,5.67
2023-01-17T14:58:32.388Z,5.64
2023-01-17T15:01:03.182Z,5.59
2023-01-17T15:03:42.986Z,5.55
2023-01-17T15:06:21.869Z,5.48
2023-01-17T15:08:53.954Z,5.45
2023-01-17T15:11:27.099Z,5.43
2023-01-17T15:14:00.357Z,5.41
2023-01-17T15:16:34.457Z,5.38
2023-01-17T15:19:11.277Z,5.36
2023-01-17T15:21:44.461Z,5.33
2023-01-17T15:24:20.629Z,5.31
2023-01-17T15:26:52.014Z,5.29
2023-01-17T15:29:27.703Z,5.25
2023-01-17T15:32:00.330Z,5.20
2023-01-17T15:34:33.662Z,5.16
2023-01-17T15:37:08.875Z,5.11
2023-01-17T15:39:42.145Z,5.06
2023-01-17T15:42:23.929Z,5.00
2023-01-17T15:44:58.458Z,4.97
2023-01-17T15:47:32.932Z,4.95
2023-01-17T15:50:30.150Z,4.93
2023-01-17T15:53:02.990Z,4.92
2023-01-17T15:55:36.977Z,4.89
2023-01-17T15:58:23.916Z,4.82
2023-01-17T16:00:54.827Z,4.80
2023-01-17T16:03:29.349Z,4.78
2023-01-17T16:06:03.006Z,4.73
2023-01-17T16:08:39.527Z,4.66
2023-01-17T16:11:15.116Z,4.57
2023-01-17T16:13:47.356Z,4.50
2023-01-17T16:16:24.230Z,4.48
2023-01-17T16:19:01.258Z,4.50
2023-01-17T16:21:33.643Z,4.52
2023-01-17T16:24:06.831Z,4.50
2023-01-17T16:26:37.502Z,4.43
2023-01-17T16:29:08.457Z,4.43
2023-01-17T16:31:39.072Z,4.37
2023-01-17T16:34:13.597Z,4.27
2023-01-17T16:36:44.333Z,4.19
2023-01-17T16:39:16.775Z,4.14
2023-01-17T16:41:47.774Z,4.11
2023-01-17T16:44:18.651Z,4.07
2023-01-17T16:46:49.372Z,4.07
2023-01-17T16:49:20.241Z,4.04
2023-01-17T16:51:51.741Z,4.00
2023-01-17T16:54:22.436Z,3.94
2023-01-17T16:56:53.349Z,3.85
2023-01-17T16:59:24.121Z,3.75
2023-01-17T17:01:54.849Z,3.66
2023-01-17T17:04:25.624Z,3.61
2023-01-17T17:06:56.519Z,3.59
2023-01-17T17:09:27.449Z,3.59
2023-01-17T17:11:58.362Z,3.60
2023-01-17T17:14:29.397Z,3.60
2023-01-17T17:17:03.156Z,3.60
2023-01-17T17:19:34.462Z,3.59
2023-01-17T17:22:06.645Z,3.55
2023-01-17T17:24:37.483Z,3.49
2023-01-17T17:27:08.129Z,3.43
2023-01-17T17:29:38.851Z,3.39
2023-01-17T17:32:11.567Z,3.36
2023-01-17T17:34:42.199Z,3.32
2023-01-17T17:37:13.564Z,3.24
2023-01-17T17:39:44.512Z,3.16
2023-01-17T17:42:15.538Z,3.11
2023-01-17T17:44:46.282Z,3.01
2023-01-17T17:47:17.853Z,2.94
2023-01-17T17:49:48.571Z,2.96
2023-01-17T17:52:19.234Z,2.91
2023-01-17T17:54:50.348Z,2.85
2023-01-17T17:57:21.016Z,2.83
2023-01-17T17:59:51.684Z,2.82
2023-01-17T18:02:22.354Z,2.79
2023-01-17T18:04:53.234Z,2.72
2023-01-17T18:07:24.108Z,2.60
2023-01-17T18:09:54.794Z,2.49
2023-01-17T18:12:25.464Z,2.39
2023-01-17T18:14:56.061Z,2.35
2023-01-17T18:17:26.971Z,2.34
2023-01-17T18:19:57.583Z,2.26
2023-01-17T18:22:28.242Z,2.10
2023-01-17T18:24:59.024Z,1.97
2023-01-17T18:27:29.688Z,1.94
2023-01-17T18:30:00.578Z,1.93
2023-01-17T18:32:31.363Z,1.89
2023-01-17T18:35:04.038Z,1.79
2023-01-17T18:37:34.788Z,1.74
2023-01-17T18:40:07.140Z,1.72
2023-01-17T18:42:39.026Z,1.65
2023-01-17T18:45:11.879Z,1.60
2023-01-17T18:47:42.621Z,1.58
2023-01-17T18:50:13.970Z,1.56
2023-01-17T18:52:44.913Z,1.56
2023-01-17T18:55:15.792Z,1.56
2023-01-17T18:57:47.175Z,1.53
2023-01-17T19:00:20.026Z,1.46
2023-01-17T19:02:51.891Z,1.45
2023-01-17T19:05:24.682Z,1.38
2023-01-17T19:07:55.917Z,1.33
2023-01-17T19:10:27.622Z,1.33
2023-01-17T19:12:58.919Z,1.35
2023-01-17T19:15:32.860Z,1.36
2023-01-17T19:18:08.627Z,1.27
2023-01-17T19:20:39.590Z,1.18
2023-01-17T19:23:10.342Z,1.08
2023-01-17T19:25:41.150Z,1.07
2023-01-17T19:28:11.841Z,1.10
2023-01-17T19:30:42.570Z,1.06
2023-01-17T19:33:13.246Z,1.04
2023-01-17T19:35:44.138Z,1.02
2023-01-17T19:38:15.397Z,0.93
2023-01-17T19:40:46.584Z,1.02
2023-01-17T19:43:17.797Z,1.06
2023-01-17T19:45:58.543Z,1.12
2023-01-17T19:48:30.076Z,1.19
2023-01-17T19:51:06.722Z,1.25
2023-01-17T19:53:41.703Z,1.25
2023-01-17T19:56:15.906Z,1.24
2023-01-17T19:58:48.079Z,1.25
2023-01-17T20:01:20.464Z,1.20
2023-01-17T20:03:51.479Z,1.17
2023-01-17T20:06:24.256Z,1.15
2023-01-17T20:08:58.665Z,1.15
2023-01-17T20:11:33.764Z,1.09
2023-01-17T20:14:05.562Z,1.04
2023-01-17T20:16:38.051Z,1.03
2023-01-17T20:19:08.803Z,1.04
2023-01-17T20:21:39.671Z,1.04
2023-01-17T20:24:14.262Z,1.05
2023-01-17T20:26:44.913Z,1.05
2023-01-17T20:29:17.918Z,1.08
2023-01-17T20:31:52.351Z,1.10
2023-01-17T20:34:25.835Z,1.12
2023-01-17T20:36:59.374Z,1.15
2023-01-17T20:39:30.618Z,1.21
2023-01-17T20:42:01.300Z,1.25
2023-01-17T20:44:34.387Z,1.27
2023-01-17T20:47:05.094Z,1.21
2023-01-17T20:49:35.762Z,1.14
2023-01-17T20:52:07.044Z,1.13
2023-01-17T20:54:37.663Z,1.12
2023-01-17T20:57:08.477Z,1.08
2023-01-17T20:59:39.231Z,1.00
2023-01-17T21:02:10.988Z,0.93
2023-01-17T21:04:41.948Z,0.80
2023-01-17T21:07:12.686Z,0.76
2023-01-17T21:09:43.882Z,0.71
2023-01-17T21:12:15.999Z,0.64
2023-01-17T21:14:46.722Z,0.53
2023-01-17T21:17:17.493Z,0.43
2023-01-17T21:19:48.155Z,0.35
2023-01-17T21:22:18.838Z,0.36
2023-01-17T21:24:49.553Z,0.40
2023-01-17T21:27:21.633Z,0.42
2023-01-17T21:29:53.630Z,0.49
2023-01-17T21:32:24.795Z,0.57
2023-01-17T21:34:55.619Z,0.64
2023-01-17T21:37:26.239Z,0.70
2023-01-17T21:39:56.961Z,0.73
2023-01-17T21:42:27.738Z,0.75
2023-01-17T21:44:58.528Z,0.73
2023-01-17T21:47:29.195Z,0.66
2023-01-17T21:49:59.950Z,0.61
2023-01-17T21:52:31.651Z,0.58
2023-01-17T21:55:20.216Z,0.58
2023-01-17T21:58:08.616Z,0.56
2023-01-17T22:00:43.019Z,0.48
2023-01-17T22:03:13.904Z,0.39
2023-01-17T22:05:44.498Z,0.30
2023-01-17T22:08:15.567Z,0.25
2023-01-17T22:10:47.080Z,0.19
2023-01-17T22:13:19.718Z,0.27
2023-01-17T22:16:00.582Z,0.31
2023-01-17T22:18:32.493Z,0.34
2023-01-17T22:21:07.397Z,0.40
2023-01-17T22:23:39.561Z,0.47
2023-01-17T22:26:11.835Z,0.49
2023-01-17T22:28:43.662Z,0.45
2023-01-17T22:31:16.425Z,0.41
2023-01-17T22:33:48.980Z,0.39
2023-01-17T22:36:20.194Z,0.36
2023-01-17T22:38:51.066Z,0.33
2023-01-17T22:41:23.434Z,0.32
2023-01-17T22:43:57.681Z,0.32
2023-01-17T22:46:31.845Z,0.34
2023-01-17T22:49:02.848Z,0.36
2023-01-17T22:51:33.636Z,0.38
2023-01-17T22:54:04.264Z,0.38
2023-01-17T22:56:36.012Z,0.40
2023-01-17T22:59:11.414Z,0.43
2023-01-17T23:01:42.492Z,0.46
2023-01-17T23:04:15.972Z,0.48
2023-01-17T23:06:46.786Z,0.52
2023-01-17T23:09:18.300Z,0.53
2023-01-17T23:11:52.693Z,0.51
2023-01-17T23:14:28.151Z,0.52
2023-01-17T23:17:19.068Z,0.52
2023-01-17T23:19:51.387Z,0.52
2023-01-17T23:22:23.678Z,0.51
2023-01-17T23:24:56.173Z,0.46
2023-01-17T23:27:46.766Z,0.38
2023-01-17T23:30:19.073Z,0.37
2023-01-17T23:32:51.316Z,0.41
2023-01-17T23:35:24.019Z,0.47
2023-01-17T23:38:13.272Z,0.53
2023-01-17T23:41:04.430Z,0.58
2023-01-17T23:43:36.325Z,0.65
2023-01-17T23:46:12.044Z,0.71
2023-01-17T23:48:42.815Z,0.78
2023-01-17T23:51:13.549Z,0.87
2023-01-17T23:53:44.274Z,0.91
2023-01-17T23:56:18.215Z,0.90
2023-01-17T23:58:49.236Z,0.91
